Time;durP1;ratioP1;P1;durP2;ratioP2;P2;SDS_P1;SDS_P2;PMS_P1;PMS_P2;Temp;Humidity;BMP_temperature;BMP_pressure;BME280_temperature;BME280_humidity;BME280_pressure;Samples;Min_cycle;Max_cycle;Signal;HPM_P1;HPM_P2
2022/01/13 00:00:27;;;;;;;26.73;15.10;;;4.60;99.90;;;;;;5056042;28;20218;-68
2022/01/13 00:02:52;;;;;;;28.57;16.43;;;4.60;99.90;;;;;;5054574;28;20232;-68
2022/01/13 00:05:20;;;;;;;31.73;16.27;;;4.60;99.90;;;;;;5052775;28;20406;-67
2022/01/13 00:07:45;;;;;;;32.97;15.30;;;4.60;99.90;;;;;;5056600;28;20280;-67
2022/01/13 00:10:11;;;;;;;33.17;16.13;;;4.60;99.90;;;;;;5053573;28;20923;-69
2022/01/13 00:12:41;;;;;;;28.43;17.40;;;4.60;99.90;;;;;;5048040;28;20211;-68
2022/01/13 00:15:24;;;;;;;26.90;16.53;;;4.60;99.90;;;;;;5051369;28;20203;-68
2022/01/13 00:23:37;;;;;;;32.53;16.83;;;4.60;99.90;;;;;;5060661;28;20588;-68
2022/01/13 00:25:34;;;;;;;35.60;15.67;;;4.60;99.90;;;;;;5050951;28;20213;-68
2022/01/13 00:28:02;;;;;;;35.20;19.70;;;4.70;99.90;;;;;;5063117;28;20206;-66
2022/01/13 00:30:28;;;;;;;27.33;15.67;;;4.70;99.90;;;;;;5051959;28;20571;-68
2022/01/13 00:32:55;;;;;;;36.13;19.63;;;4.70;99.90;;;;;;5055218;28;20201;-71
2022/01/13 00:35:21;;;;;;;35.07;18.83;;;4.70;99.90;;;;;;5057936;28;20225;-66
2022/01/13 00:37:47;;;;;;;30.23;15.67;;;4.60;99.90;;;;;;5063191;28;20198;-67
2022/01/13 00:40:13;;;;;;;35.03;17.07;;;4.50;99.90;;;;;;5068931;28;20198;-65
2022/01/13 00:42:39;;;;;;;27.73;17.60;;;4.40;99.90;;;;;;5055895;28;20213;-65
2022/01/13 00:45:06;;;;;;;35.67;17.90;;;4.40;99.90;;;;;;5059945;28;20280;-64
2022/01/13 00:47:36;;;;;;;29.43;17.90;;;4.40;99.90;;;;;;5053136;28;20214;-64
2022/01/13 00:50:04;;;;;;;32.53;18.33;;;4.50;99.90;;;;;;5055348;28;20198;-64
2022/01/13 00:52:29;;;;;;;33.17;19.17;;;4.50;99.90;;;;;;5049958;28;20214;-65
2022/01/13 00:54:56;;;;;;;30.83;18.97;;;4.50;99.90;;;;;;5059113;28;20197;-67
2022/01/13 00:57:27;;;;;;;28.87;17.03;;;4.50;99.90;;;;;;5048865;28;20725;-68
2022/01/13 00:59:53;;;;;;;29.03;17.30;;;4.50;99.90;;;;;;5055158;28;20188;-64
2022/01/13 01:02:19;;;;;;;34.17;18.20;;;4.50;99.90;;;;;;5051806;28;20285;-68
2022/01/13 01:04:44;;;;;;;30.57;17.77;;;4.50;99.90;;;;;;5058569;28;20759;-65
2022/01/13 01:07:10;;;;;;;30.57;18.67;;;4.60;99.90;;;;;;5051106;28;20672;-67
2022/01/13 01:09:41;;;;;;;31.57;19.10;;;4.60;99.90;;;;;;5057075;28;20723;-68
2022/01/13 01:12:10;;;;;;;31.10;19.43;;;4.60;99.90;;;;;;5048748;28;20246;-65
2022/01/13 01:14:40;;;;;;;31.53;19.07;;;4.70;99.90;;;;;;5064556;28;20205;-68
2022/01/13 01:17:06;;;;;;;36.80;20.27;;;4.70;99.90;;;;;;5055036;28;20209;-66
2022/01/13 01:19:31;;;;;;;30.87;18.63;;;4.60;99.90;;;;;;5058737;28;20195;-68
2022/01/13 01:22:19;;;;;;;37.70;18.77;;;4.60;99.90;;;;;;5066488;28;20230;-67
2022/01/13 01:25:36;;;;;;;41.03;19.37;;;4.60;99.90;;;;;;5054915;28;20671;-67
2022/01/13 01:27:36;;;;;;;29.90;17.60;;;4.50;99.90;;;;;;5052801;28;20272;-67
2022/01/13 01:30:09;;;;;;;40.80;20.93;;;4.50;99.90;;;;;;5057484;28;20792;-68
2022/01/13 01:32:37;;;;;;;38.63;19.53;;;4.60;99.90;;;;;;5060853;28;20210;-64
2022/01/13 01:35:04;;;;;;;32.80;20.03;;;4.60;99.90;;;;;;5063267;28;20197;-65
2022/01/13 01:37:30;;;;;;;38.80;20.07;;;4.70;99.90;;;;;;5045328;28;20203;-68
2022/01/13 01:39:59;;;;;;;38.70;19.93;;;4.70;99.90;;;;;;5054316;28;20665;-69
2022/01/13 01:42:26;;;;;;;32.13;19.37;;;4.70;99.90;;;;;;5078606;28;20212;-64
2022/01/13 01:44:57;;;;;;;30.60;18.97;;;4.80;99.90;;;;;;5064435;28;20517;-65
2022/01/13 01:47:32;;;;;;;34.23;20.47;;;4.80;99.90;;;;;;5042769;28;20218;-71
2022/01/13 01:50:09;;;;;;;30.90;19.07;;;4.80;99.90;;;;;;5049727;28;20233;-68
2022/01/13 01:52:35;;;;;;;30.70;19.37;;;4.80;99.90;;;;;;5054241;28;20191;-67
2022/01/13 01:55:01;;;;;;;30.57;19.13;;;4.70;99.90;;;;;;5055948;28;20623;-68
2022/01/13 01:57:27;;;;;;;33.27;19.57;;;4.70;99.90;;;;;;5060047;28;20194;-69
2022/01/13 01:59:54;;;;;;;38.63;19.90;;;4.70;99.90;;;;;;5056072;28;20212;-68
2022/01/13 02:02:21;;;;;;;32.27;19.87;;;4.70;99.90;;;;;;5055314;28;20240;-68
2022/01/13 02:04:46;;;;;;;35.87;19.87;;;4.60;99.90;;;;;;5054253;28;20250;-66
2022/01/13 02:07:13;;;;;;;34.73;18.93;;;4.60;99.90;;;;;;5057988;28;20229;-66
2022/01/13 02:09:42;;;;;;;36.03;21.17;;;4.60;99.90;;;;;;5055706;28;20201;-66
2022/01/13 02:12:13;;;;;;;32.83;19.07;;;4.60;99.90;;;;;;5064916;28;20736;-70
2022/01/13 02:15:05;;;;;;;32.07;20.70;;;4.70;99.90;;;;;;5055619;28;20211;-67
2022/01/13 02:17:34;;;;;;;39.30;20.70;;;4.70;99.90;;;;;;5062172;28;20182;-64
2022/01/13 02:20:03;;;;;;;40.83;21.03;;;4.80;99.90;;;;;;5057700;28;20204;-65
2022/01/13 02:22:29;;;;;;;33.37;20.70;;;4.70;99.90;;;;;;5063420;28;20226;-65
2022/01/13 02:24:56;;;;;;;34.83;20.70;;;4.70;99.90;;;;;;5064813;28;20198;-66
2022/01/13 02:27:22;;;;;;;41.40;21.97;;;4.70;99.90;;;;;;5066429;28;20244;-62
2022/01/13 02:29:48;;;;;;;37.17;20.97;;;4.60;99.90;;;;;;5070692;28;20238;-63
2022/01/13 02:32:13;;;;;;;32.90;21.03;;;4.70;99.90;;;;;;5066825;28;20684;-67
2022/01/13 02:34:39;;;;;;;37.63;22.57;;;4.70;99.90;;;;;;5057867;28;20190;-64
2022/01/13 02:37:11;;;;;;;34.97;20.83;;;4.70;99.90;;;;;;5051976;28;20569;-69
2022/01/13 02:39:37;;;;;;;37.93;22.73;;;4.60;99.90;;;;;;5078682;28;20256;-67
2022/01/13 02:42:14;;;;;;;43.13;20.83;;;4.50;99.90;;;;;;5075989;28;20202;-66
2022/01/13 02:45:33;;;;;;;42.03;19.50;;;4.50;99.90;;;;;;5064623;28;20714;-70
2022/01/13 02:50:11;;;;;;;35.03;22.27;;;4.50;99.90;;;;;;5060051;28;20210;-69
2022/01/13 02:52:38;;;;;;;36.93;21.63;;;4.50;99.90;;;;;;5068614;28;20229;-66
2022/01/13 02:55:15;;;;;;;37.90;22.57;;;4.60;99.90;;;;;;5065988;28;20220;-69
2022/01/13 02:57:50;;;;;;;40.73;22.33;;;4.50;99.90;;;;;;5068894;28;20261;-76
2022/01/13 03:00:17;;;;;;;38.13;22.60;;;4.50;99.90;;;;;;5072606;28;20347;-67
2022/01/13 03:02:46;;;;;;;35.43;20.63;;;4.40;99.90;;;;;;5070360;28;20201;-68
2022/01/13 03:05:13;;;;;;;39.83;22.57;;;4.50;99.90;;;;;;5073991;28;20292;-69
2022/01/13 03:07:39;;;;;;;40.50;20.03;;;4.50;99.90;;;;;;5070361;28;20197;-71
2022/01/13 03:10:06;;;;;;;37.90;21.37;;;4.40;99.90;;;;;;5063034;28;20201;-69
2022/01/13 03:12:35;;;;;;;41.27;21.57;;;4.40;99.90;;;;;;5067912;28;20293;-65
2022/01/13 03:15:00;;;;;;;35.43;21.10;;;4.40;99.90;;;;;;5058058;28;20205;-66
2022/01/13 03:17:26;;;;;;;38.47;21.80;;;4.50;99.90;;;;;;5077667;28;20213;-65
2022/01/13 03:19:51;;;;;;;39.67;22.47;;;4.50;99.90;;;;;;5070989;28;20999;-66
2022/01/13 03:22:17;;;;;;;35.97;21.43;;;4.50;99.90;;;;;;5073955;28;20301;-66
2022/01/13 03:24:42;;;;;;;38.27;21.10;;;4.50;99.90;;;;;;5068831;28;20205;-70
2022/01/13 03:27:12;;;;;;;35.47;22.03;;;4.40;99.90;;;;;;5067514;28;20191;-70
2022/01/13 03:29:38;;;;;;;35.63;21.10;;;4.40;99.90;;;;;;5071851;28;20208;-70
2022/01/13 03:32:03;;;;;;;39.63;20.47;;;4.40;99.90;;;;;;5078511;28;20214;-65
2022/01/13 03:34:29;;;;;;;38.63;22.67;;;4.40;99.90;;;;;;5069167;28;20183;-66
2022/01/13 03:36:54;;;;;;;39.63;21.97;;;4.50;99.90;;;;;;5069892;28;20683;-71
2022/01/13 03:39:20;;;;;;;35.83;21.43;;;4.40;99.90;;;;;;5063234;28;20201;-72
2022/01/13 03:41:46;;;;;;;35.13;21.40;;;4.40;99.90;;;;;;5055085;28;20189;-65
2022/01/13 03:44:27;;;;;;;37.50;19.40;;;4.40;99.90;;;;;;5066920;28;20640;-67
2022/01/13 03:46:52;;;;;;;38.47;20.83;;;4.40;99.90;;;;;;5073480;28;20328;-66
2022/01/13 03:49:17;;;;;;;40.27;21.07;;;4.50;99.90;;;;;;5065397;28;20260;-67
2022/01/13 03:51:55;;;;;;;32.83;20.37;;;4.40;99.90;;;;;;5073657;28;20205;-70
2022/01/13 03:54:52;;;;;;;34.10;22.10;;;4.50;99.90;;;;;;5058982;28;20212;-70
2022/01/13 03:58:17;;;;;;;34.57;19.93;;;4.50;99.90;;;;;;5066854;28;20190;-65
2022/01/13 04:01:18;;;;;;;37.13;23.20;;;4.40;99.90;;;;;;5069231;28;20215;-69
2022/01/13 04:03:44;;;;;;;31.27;20.70;;;4.30;99.90;;;;;;5071937;28;20619;-66
2022/01/13 04:06:16;;;;;;;38.43;21.83;;;4.30;99.90;;;;;;5077863;28;20190;-65
2022/01/13 04:08:45;;;;;;;32.97;21.47;;;4.40;99.90;;;;;;5065373;28;20571;-67
2022/01/13 04:11:14;;;;;;;47.03;24.40;;;4.40;99.90;;;;;;5082645;28;20566;-67
2022/01/13 04:13:57;;;;;;;37.37;21.77;;;4.40;99.90;;;;;;5066789;28;20226;-66
2022/01/13 04:16:27;;;;;;;37.07;22.13;;;4.30;99.90;;;;;;5071464;28;20228;-66
2022/01/13 04:18:58;;;;;;;39.47;23.77;;;4.30;99.90;;;;;;5068008;28;20304;-65
2022/01/13 04:21:23;;;;;;;48.20;25.70;;;4.20;99.90;;;;;;5061776;28;20334;-65
2022/01/13 04:23:57;;;;;;;39.53;24.13;;;4.20;99.90;;;;;;5073088;28;20596;-67
2022/01/13 04:26:28;;;;;;;40.37;26.20;;;4.20;99.90;;;;;;5061404;28;20666;-70
2022/01/13 04:31:37;;;;;;;42.93;24.57;;;4.20;99.90;;;;;;5069324;28;20301;-69
2022/01/13 04:34:03;;;;;;;48.80;24.03;;;4.20;99.90;;;;;;5069996;28;20213;-66
2022/01/13 04:36:28;;;;;;;42.87;25.43;;;4.20;99.90;;;;;;5067967;28;20664;-66
2022/01/13 04:38:54;;;;;;;43.87;24.37;;;4.20;99.90;;;;;;5056982;28;20205;-68
2022/01/13 04:41:30;;;;;;;45.07;26.33;;;4.10;99.90;;;;;;5075396;28;20225;-67
2022/01/13 04:43:56;;;;;;;41.17;24.53;;;4.10;99.90;;;;;;5073890;28;20212;-65
2022/01/13 04:46:22;;;;;;;43.93;25.50;;;4.10;99.90;;;;;;5068089;28;20185;-62
2022/01/13 04:48:47;;;;;;;47.63;25.93;;;4.20;99.90;;;;;;5072165;28;20216;-62
2022/01/13 04:51:13;;;;;;;43.10;24.27;;;4.10;99.90;;;;;;5081075;28;20208;-62
2022/01/13 04:53:38;;;;;;;39.03;24.63;;;4.10;99.90;;;;;;5060719;28;20229;-62
2022/01/13 04:56:10;;;;;;;54.33;27.57;;;4.10;99.90;;;;;;5059400;28;20198;-62
2022/01/13 04:58:36;;;;;;;50.07;26.43;;;4.00;99.90;;;;;;5064348;28;20258;-62
2022/01/13 05:01:03;;;;;;;43.40;26.93;;;4.00;99.90;;;;;;5067047;28;20218;-62
2022/01/13 05:03:29;;;;;;;42.27;26.57;;;4.00;99.90;;;;;;5055838;28;20211;-62
2022/01/13 05:05:55;;;;;;;41.50;25.23;;;4.00;99.90;;;;;;5069506;28;20201;-62
2022/01/13 05:08:20;;;;;;;47.73;25.10;;;4.00;99.90;;;;;;5058738;28;20588;-63
2022/01/13 05:10:45;;;;;;;49.63;26.10;;;4.00;99.90;;;;;;5061681;28;20583;-64
2022/01/13 05:13:12;;;;;;;44.30;24.33;;;4.10;99.90;;;;;;5050065;28;20276;-64
2022/01/13 05:15:40;;;;;;;45.10;25.40;;;4.10;99.90;;;;;;5063960;28;20211;-66
2022/01/13 05:18:17;;;;;;;47.83;27.07;;;4.10;99.90;;;;;;5062564;28;20514;-65
2022/01/13 05:20:48;;;;;;;40.97;23.73;;;4.10;99.90;;;;;;5048322;28;20214;-66
2022/01/13 05:23:14;;;;;;;49.13;25.83;;;4.00;99.90;;;;;;5050818;28;20185;-62
2022/01/13 05:25:42;;;;;;;51.73;23.90;;;4.00;99.90;;;;;;5051882;28;20653;-64
2022/01/13 05:28:07;;;;;;;46.37;26.30;;;4.00;99.90;;;;;;5057391;28;20185;-64
2022/01/13 05:30:34;;;;;;;41.67;24.90;;;3.90;99.90;;;;;;5054359;28;20569;-61
2022/01/13 05:32:59;;;;;;;51.07;25.30;;;3.90;99.90;;;;;;5059144;28;20585;-62
2022/01/13 05:35:25;;;;;;;48.93;24.17;;;3.90;99.90;;;;;;5059137;28;20202;-61
2022/01/13 05:37:51;;;;;;;43.47;25.40;;;3.90;99.90;;;;;;5055697;28;20243;-62
2022/01/13 05:40:17;;;;;;;47.90;24.20;;;4.00;99.90;;;;;;5055008;28;20213;-61
2022/01/13 05:42:43;;;;;;;45.60;24.23;;;3.90;99.90;;;;;;5056744;28;20717;-62
2022/01/13 05:45:15;;;;;;;49.57;25.43;;;4.00;99.90;;;;;;5053541;28;20220;-62
2022/01/13 05:47:45;;;;;;;55.90;24.77;;;4.00;99.90;;;;;;5054575;28;20177;-61
2022/01/13 05:50:12;;;;;;;43.47;23.33;;;3.90;99.90;;;;;;5054405;28;20242;-63
2022/01/13 05:52:39;;;;;;;50.87;28.20;;;3.90;99.90;;;;;;5054682;28;20198;-62
2022/01/13 05:55:05;;;;;;;47.87;23.70;;;4.00;99.90;;;;;;5055063;28;20208;-63
2022/01/13 05:57:31;;;;;;;43.97;24.60;;;4.00;99.90;;;;;;5057598;28;20179;-62
2022/01/13 05:59:57;;;;;;;45.63;24.43;;;4.00;99.90;;;;;;5054001;28;20205;-62
2022/01/13 06:02:22;;;;;;;43.97;23.40;;;4.00;99.90;;;;;;5054823;28;20691;-62
2022/01/13 06:04:48;;;;;;;46.03;24.13;;;3.90;99.90;;;;;;5061283;28;20741;-62
2022/01/13 06:07:13;;;;;;;47.43;24.60;;;3.90;99.90;;;;;;5051020;28;20288;-61
2022/01/13 06:09:39;;;;;;;48.57;25.10;;;3.90;99.90;;;;;;5060014;28;20229;-62
2022/01/13 06:12:05;;;;;;;44.73;22.83;;;3.80;99.90;;;;;;5054480;28;20228;-62
2022/01/13 06:14:31;;;;;;;44.93;23.60;;;3.80;99.90;;;;;;5056985;28;20285;-62
2022/01/13 06:16:57;;;;;;;51.83;24.20;;;3.90;99.90;;;;;;5052780;28;20309;-62
2022/01/13 06:19:22;;;;;;;46.07;23.87;;;3.90;99.90;;;;;;5055166;28;20622;-63
2022/01/13 06:21:48;;;;;;;45.87;21.93;;;3.90;99.90;;;;;;5056405;28;20237;-63
2022/01/13 06:24:13;;;;;;;46.93;22.60;;;4.10;99.90;;;;;;5058432;28;20195;-62
2022/01/13 06:26:39;;;;;;;41.33;21.63;;;4.00;99.90;;;;;;5054279;28;20565;-62
2022/01/13 06:29:05;;;;;;;46.17;22.07;;;4.00;99.90;;;;;;5055291;28;20205;-62
2022/01/13 06:31:30;;;;;;;47.37;24.13;;;4.00;99.90;;;;;;5055901;28;20221;-62
2022/01/13 06:33:56;;;;;;;49.10;24.53;;;4.00;99.90;;;;;;5056728;28;20264;-63
2022/01/13 06:36:21;;;;;;;49.30;24.50;;;4.00;99.90;;;;;;5054024;28;20683;-62
2022/01/13 06:38:49;;;;;;;40.23;21.57;;;4.10;99.90;;;;;;5055159;28;20205;-62
2022/01/13 06:41:16;;;;;;;43.17;23.33;;;4.10;99.90;;;;;;5057375;28;20253;-62
2022/01/13 06:43:41;;;;;;;40.90;22.17;;;4.10;99.90;;;;;;5057006;28;20259;-62
2022/01/13 06:46:06;;;;;;;54.27;22.33;;;4.10;99.90;;;;;;5054467;28;20957;-62
2022/01/13 06:48:32;;;;;;;45.07;23.97;;;4.10;99.90;;;;;;5058853;28;20209;-62
2022/01/13 06:50:58;;;;;;;48.20;26.17;;;4.10;99.90;;;;;;5053171;28;20240;-62
2022/01/13 06:53:24;;;;;;;46.33;23.27;;;4.10;99.90;;;;;;5063168;28;20240;-62
2022/01/13 06:55:51;;;;;;;42.33;21.70;;;4.10;99.90;;;;;;5054750;28;20267;-62
2022/01/13 06:58:16;;;;;;;38.97;20.60;;;4.00;99.90;;;;;;5065776;28;20205;-62
2022/01/13 07:00:42;;;;;;;37.50;22.53;;;4.00;99.90;;;;;;5055561;28;20198;-62
2022/01/13 07:03:08;;;;;;;43.80;24.23;;;4.10;99.90;;;;;;5066161;28;20249;-62
2022/01/13 07:05:34;;;;;;;40.00;22.97;;;4.10;99.90;;;;;;5056345;28;20226;-62
2022/01/13 07:08:00;;;;;;;45.17;20.63;;;4.10;99.90;;;;;;5064467;28;20687;-62
2022/01/13 07:10:25;;;;;;;40.03;21.70;;;4.10;99.90;;;;;;5063892;28;20217;-63
2022/01/13 07:12:51;;;;;;;49.87;24.23;;;4.10;99.90;;;;;;5058655;28;20193;-62
2022/01/13 07:15:16;;;;;;;41.10;23.20;;;4.20;99.90;;;;;;5064661;28;20204;-62
2022/01/13 07:17:42;;;;;;;48.70;24.50;;;4.10;99.90;;;;;;5058195;28;20251;-68
2022/01/13 07:20:09;;;;;;;47.70;21.87;;;4.00;99.90;;;;;;5059318;28;20191;-62
2022/01/13 07:22:37;;;;;;;46.00;22.13;;;4.10;99.90;;;;;;5055798;28;20261;-61
2022/01/13 07:25:03;;;;;;;44.33;23.87;;;4.00;99.90;;;;;;5060513;28;20561;-61
2022/01/13 07:27:28;;;;;;;40.03;21.80;;;4.10;99.90;;;;;;5050960;28;20288;-61
2022/01/13 07:29:54;;;;;;;46.63;22.30;;;4.10;99.90;;;;;;5061882;28;20321;-60
2022/01/13 07:32:19;;;;;;;37.67;21.50;;;4.10;99.90;;;;;;5054928;28;20205;-61
2022/01/13 07:34:45;;;;;;;41.27;22.27;;;4.10;99.90;;;;;;5062897;28;20194;-61
2022/01/13 07:37:10;;;;;;;43.07;22.37;;;4.10;99.90;;;;;;5060010;28;20750;-61
2022/01/13 07:39:36;;;;;;;43.63;22.33;;;4.00;99.90;;;;;;5063371;28;20194;-61
2022/01/13 07:42:05;;;;;;;44.97;20.67;;;4.10;99.90;;;;;;5055498;28;20189;-61
2022/01/13 07:44:31;;;;;;;44.67;22.27;;;4.10;99.90;;;;;;5061302;28;20727;-61
2022/01/13 07:46:58;;;;;;;39.13;20.70;;;4.10;99.90;;;;;;5051945;28;20341;-61
2022/01/13 07:49:24;;;;;;;47.03;21.50;;;4.00;99.90;;;;;;5065684;28;20202;-61
2022/01/13 07:51:49;;;;;;;50.50;23.23;;;4.00;99.90;;;;;;5048594;28;20226;-62
2022/01/13 07:54:15;;;;;;;50.73;22.90;;;4.00;99.90;;;;;;5065760;28;20194;-61
2022/01/13 07:56:40;;;;;;;46.20;21.20;;;3.90;99.90;;;;;;5046560;28;20268;-62
2022/01/13 07:59:06;;;;;;;48.07;22.63;;;4.00;99.90;;;;;;5063308;28;20194;-61
2022/01/13 08:01:31;;;;;;;38.07;19.80;;;4.00;99.90;;;;;;5054150;28;20203;-61
2022/01/13 08:03:57;;;;;;;40.70;21.20;;;3.90;99.90;;;;;;5065760;28;20205;-62
2022/01/13 08:06:22;;;;;;;39.47;22.70;;;3.90;99.90;;;;;;5048874;28;20630;-61
2022/01/13 08:08:48;;;;;;;44.80;21.87;;;3.90;99.90;;;;;;5065220;28;20296;-61
2022/01/13 08:11:16;;;;;;;43.27;20.27;;;3.90;99.90;;;;;;5049605;28;20273;-62
2022/01/13 08:13:42;;;;;;;47.77;24.83;;;3.90;99.90;;;;;;5059153;28;20660;-61
2022/01/13 08:16:09;;;;;;;46.13;22.17;;;3.90;99.90;;;;;;5051800;28;20210;-61
2022/01/13 08:21:20;;;;;;;43.40;21.57;;;4.00;99.90;;;;;;5050673;28;20239;-61
2022/01/13 08:23:45;;;;;;;43.87;24.13;;;4.10;99.90;;;;;;5052946;28;20390;-62
2022/01/13 08:26:11;;;;;;;48.67;23.87;;;4.00;99.90;;;;;;5050201;28;20583;-62
2022/01/13 08:28:37;;;;;;;47.80;22.73;;;4.00;99.90;;;;;;5064765;28;20267;-61
2022/01/13 08:31:03;;;;;;;54.03;23.47;;;4.00;99.90;;;;;;5049565;28;20207;-61
2022/01/13 08:33:30;;;;;;;46.37;22.57;;;4.00;99.90;;;;;;5064540;28;20216;-61
2022/01/13 08:35:56;;;;;;;43.37;22.23;;;4.00;99.90;;;;;;5056474;28;20621;-61
2022/01/13 08:38:23;;;;;;;44.97;20.53;;;4.00;99.90;;;;;;5065024;28;20198;-61
2022/01/13 08:40:53;;;;;;;52.73;24.03;;;4.00;99.90;;;;;;5052126;28;20199;-61
2022/01/13 08:43:20;;;;;;;49.27;25.43;;;4.10;99.90;;;;;;5064560;28;20675;-61
2022/01/13 08:45:46;;;;;;;43.03;23.23;;;4.10;99.90;;;;;;5052732;28;20199;-61
2022/01/13 08:48:11;;;;;;;43.90;21.93;;;4.10;99.90;;;;;;5061763;28;20189;-61
2022/01/13 08:50:37;;;;;;;39.67;20.87;;;4.10;99.90;;;;;;5053995;28;20254;-61
2022/01/13 08:53:03;;;;;;;37.53;20.43;;;4.00;99.90;;;;;;5062936;28;20256;-60
2022/01/13 08:55:28;;;;;;;41.57;22.87;;;4.10;99.90;;;;;;5054753;28;20195;-61
2022/01/13 08:57:54;;;;;;;44.20;21.30;;;4.00;99.90;;;;;;5064041;28;20233;-59
2022/01/13 09:00:19;;;;;;;43.53;21.70;;;4.10;99.90;;;;;;5056177;28;20205;-60
2022/01/13 09:02:45;;;;;;;47.90;22.93;;;4.10;99.90;;;;;;5059743;28;20268;-60
2022/01/13 09:05:13;;;;;;;42.33;21.33;;;4.00;99.90;;;;;;5058150;28;20216;-61
2022/01/13 09:07:38;;;;;;;43.47;22.63;;;4.10;99.90;;;;;;5056146;28;20193;-61
2022/01/13 09:10:05;;;;;;;35.90;21.73;;;4.10;99.90;;;;;;5062542;28;20718;-61
2022/01/13 09:12:30;;;;;;;46.00;21.50;;;4.20;99.90;;;;;;5047658;28;20217;-61
2022/01/13 09:15:02;;;;;;;48.20;23.77;;;4.10;99.90;;;;;;5062667;28;20202;-61
2022/01/13 09:17:29;;;;;;;39.37;20.50;;;4.10;99.90;;;;;;5055800;28;20185;-61
2022/01/13 09:19:55;;;;;;;48.03;22.03;;;4.10;99.90;;;;;;5059415;28;20196;-61
2022/01/13 09:22:20;;;;;;;40.83;22.80;;;4.10;99.90;;;;;;5059497;28;20582;-61
2022/01/13 09:24:46;;;;;;;41.70;22.83;;;4.10;99.90;;;;;;5060535;28;20264;-61
2022/01/13 09:27:11;;;;;;;44.63;21.47;;;4.20;99.90;;;;;;5055215;28;20224;-61
2022/01/13 09:29:37;;;;;;;49.10;24.40;;;4.20;99.90;;;;;;5061462;28;20197;-61
2022/01/13 09:32:03;;;;;;;43.00;21.43;;;4.20;99.90;;;;;;5053764;28;20266;-61
2022/01/13 09:34:29;;;;;;;43.20;22.07;;;4.30;99.90;;;;;;5063631;28;20190;-62
2022/01/13 09:36:55;;;;;;;47.60;22.87;;;4.20;99.90;;;;;;5042511;28;20294;-61
2022/01/13 09:39:20;;;;;;;46.63;24.50;;;4.20;99.90;;;;;;5063321;28;20286;-61
2022/01/13 09:41:48;;;;;;;46.13;22.47;;;4.20;99.90;;;;;;5058996;28;20245;-61
2022/01/13 09:44:13;;;;;;;50.47;24.57;;;4.30;99.90;;;;;;5063260;28;20206;-61
2022/01/13 09:46:40;;;;;;;49.63;23.37;;;4.30;99.90;;;;;;5050991;28;20206;-60
2022/01/13 09:49:06;;;;;;;44.50;22.70;;;4.20;99.90;;;;;;5062292;28;20289;-60
2022/01/13 09:51:33;;;;;;;50.77;24.17;;;4.20;99.90;;;;;;5056141;28;20529;-60
2022/01/13 09:53:59;;;;;;;47.17;22.50;;;4.20;99.90;;;;;;5063017;28;20676;-60
2022/01/13 09:56:25;;;;;;;51.40;22.90;;;4.20;99.90;;;;;;5054795;28;20230;-60
2022/01/13 09:58:51;;;;;;;46.53;23.40;;;4.30;99.90;;;;;;5063998;28;20271;-61
2022/01/13 10:01:17;;;;;;;40.40;23.70;;;4.30;99.90;;;;;;5058776;28;20213;-61
2022/01/13 10:03:43;;;;;;;43.27;20.73;;;4.30;99.90;;;;;;5061750;28;20724;-61
2022/01/13 10:06:12;;;;;;;44.90;21.90;;;4.30;99.90;;;;;;5055213;28;20231;-61
2022/01/13 10:08:50;;;;;;;38.57;20.97;;;4.30;99.90;;;;;;5063964;28;20194;-62
2022/01/13 10:11:44;;;;;;;42.10;21.63;;;4.30;99.90;;;;;;5042680;28;20211;-61
2022/01/13 10:16:54;;;;;;;45.60;23.73;;;4.30;99.90;;;;;;5053349;28;20209;-61
2022/01/13 10:19:42;;;;;;;40.80;20.63;;;4.20;99.90;;;;;;5066916;28;20194;-62
2022/01/13 10:22:13;;;;;;;38.23;19.37;;;4.10;99.90;;;;;;5060355;28;20229;-61
2022/01/13 10:24:41;;;;;;;43.87;19.33;;;4.10;99.90;;;;;;5062405;28;20648;-62
2022/01/13 10:27:11;;;;;;;39.90;20.40;;;4.10;99.90;;;;;;5061456;28;20307;-61
2022/01/13 10:29:37;;;;;;;45.43;21.23;;;4.10;99.90;;;;;;5063501;28;20284;-62
2022/01/13 10:32:03;;;;;;;55.43;22.77;;;4.10;99.90;;;;;;5057880;28;20202;-61
2022/01/13 10:34:30;;;;;;;45.57;20.80;;;4.10;99.90;;;;;;5065766;28;20202;-61
2022/01/13 10:37:07;;;;;;;44.20;21.73;;;4.10;99.90;;;;;;5054037;28;20676;-62
2022/01/13 10:39:52;;;;;;;43.80;21.00;;;4.10;99.90;;;;;;5047786;28;20174;-62
2022/01/13 10:45:05;;;;;;;43.83;19.93;;;4.20;99.90;;;;;;5054901;28;20199;-61
2022/01/13 10:47:31;;;;;;;45.53;21.30;;;4.20;99.90;;;;;;5051870;28;20191;-62
2022/01/13 10:50:02;;;;;;;44.37;21.43;;;4.20;99.90;;;;;;5064997;28;20194;-62
2022/01/13 10:52:28;;;;;;;45.87;23.63;;;4.20;99.90;;;;;;5058210;28;20554;-62
2022/01/13 10:54:55;;;;;;;43.67;20.80;;;4.20;99.90;;;;;;5064883;28;22470;-62
2022/01/13 10:57:24;;;;;;;50.60;22.50;;;4.10;99.90;;;;;;5058491;28;20243;-62
2022/01/13 10:59:50;;;;;;;33.00;17.67;;;4.20;99.90;;;;;;5063614;28;20195;-61
2022/01/13 11:02:18;;;;;;;48.47;20.77;;;4.10;99.90;;;;;;5059809;28;20193;-62
2022/01/13 11:04:43;;;;;;;48.83;20.70;;;4.20;99.90;;;;;;5064263;28;20194;-62
2022/01/13 11:07:24;;;;;;;39.40;19.67;;;4.10;99.90;;;;;;5056419;28;20191;-62
2022/01/13 11:09:56;;;;;;;41.93;21.03;;;4.10;99.90;;;;;;5063420;28;20205;-61
2022/01/13 11:12:36;;;;;;;51.37;21.17;;;4.10;99.90;;;;;;5050774;28;20206;-61
2022/01/13 11:15:05;;;;;;;48.20;20.03;;;4.10;99.90;;;;;;5049632;28;20204;-61
2022/01/13 11:17:37;;;;;;;42.97;19.47;;;4.20;99.90;;;;;;5053215;28;20186;-62
2022/01/13 11:20:05;;;;;;;45.53;20.13;;;4.10;99.90;;;;;;5052936;28;20580;-61
2022/01/13 11:22:35;;;;;;;43.00;19.37;;;4.10;99.90;;;;;;5052778;28;20238;-61
2022/01/13 11:25:14;;;;;;;36.73;19.47;;;4.20;99.90;;;;;;5056410;28;20284;-61
2022/01/13 11:27:40;;;;;;;42.00;19.20;;;4.30;99.90;;;;;;5058121;28;20186;-61
2022/01/13 11:30:15;;;;;;;41.80;19.30;;;4.30;99.90;;;;;;5056638;28;20206;-62
2022/01/13 11:32:42;;;;;;;39.23;19.27;;;4.30;99.90;;;;;;5056911;28;20201;-61
2022/01/13 11:35:15;;;;;;;38.37;17.27;;;4.40;99.90;;;;;;5052301;28;20205;-59
2022/01/13 11:37:42;;;;;;;32.53;17.70;;;4.40;99.90;;;;;;5055059;28;20244;-65
2022/01/13 11:40:28;;;;;;;35.17;17.30;;;4.40;99.90;;;;;;5054427;28;20369;-61
2022/01/13 11:42:55;;;;;;;36.83;18.23;;;4.40;99.90;;;;;;5056041;28;20191;-62
2022/01/13 11:45:22;;;;;;;39.20;18.90;;;4.50;99.90;;;;;;5055037;28;20205;-62
2022/01/13 11:48:06;;;;;;;37.83;20.33;;;4.50;99.90;;;;;;5055745;28;20641;-63
2022/01/13 11:50:42;;;;;;;29.03;16.13;;;4.50;99.90;;;;;;5055983;28;20201;-63
2022/01/13 11:53:19;;;;;;;42.03;23.07;;;4.50;99.90;;;;;;5059652;28;20220;-64
2022/01/13 11:55:54;;;;;;;51.40;29.23;;;4.50;99.90;;;;;;5051630;28;20198;-62
2022/01/13 11:58:26;;;;;;;37.03;19.53;;;4.50;99.90;;;;;;5054605;28;20188;-62
2022/01/13 12:00:53;;;;;;;39.87;20.33;;;4.50;99.90;;;;;;5051703;28;20203;-63
2022/01/13 12:03:23;;;;;;;35.13;18.40;;;4.60;99.90;;;;;;5057896;28;20198;-63
2022/01/13 12:05:48;;;;;;;33.57;17.20;;;4.60;99.90;;;;;;5050413;28;20202;-64
2022/01/13 12:08:56;;;;;;;32.17;17.77;;;4.60;99.90;;;;;;5057534;28;20536;-63
2022/01/13 12:11:34;;;;;;;32.77;17.63;;;4.70;99.90;;;;;;5050546;28;20220;-64
2022/01/13 12:14:00;;;;;;;34.03;18.60;;;4.70;99.90;;;;;;5053017;28;20193;-63
2022/01/13 12:16:49;;;;;;;28.93;14.93;;;4.70;99.90;;;;;;5051333;28;20199;-62
2022/01/13 12:19:41;;;;;;;27.57;16.37;;;4.70;99.90;;;;;;5053418;28;20636;-63
2022/01/13 12:22:20;;;;;;;40.17;20.00;;;4.70;99.90;;;;;;5056244;28;20258;-66
2022/01/13 12:24:55;;;;;;;31.03;16.00;;;4.80;99.90;;;;;;5052734;28;20186;-67
2022/01/13 12:27:24;;;;;;;32.10;16.77;;;4.80;99.90;;;;;;5054570;28;20920;-64
2022/01/13 12:30:11;;;;;;;32.50;17.93;;;4.80;99.90;;;;;;5058999;28;20199;-64
2022/01/13 12:32:52;;;;;;;29.83;17.33;;;4.80;99.90;;;;;;5051029;28;20221;-65
2022/01/13 12:35:18;;;;;;;29.87;17.93;;;4.80;99.90;;;;;;5055849;28;20222;-64
2022/01/13 12:37:59;;;;;;;33.47;18.57;;;4.80;99.90;;;;;;5045012;28;20281;-65
2022/01/13 12:40:25;;;;;;;30.77;17.30;;;4.80;99.90;;;;;;5052654;28;20220;-67
2022/01/13 12:42:52;;;;;;;33.13;17.63;;;4.80;99.90;;;;;;5053780;28;20201;-69
2022/01/13 12:45:28;;;;;;;33.10;17.00;;;4.80;99.90;;;;;;5062927;28;20649;-66
2022/01/13 12:48:04;;;;;;;31.63;16.33;;;5.10;99.90;;;;;;5048815;28;20183;-65
2022/01/13 12:50:42;;;;;;;28.60;15.13;;;5.30;99.90;;;;;;5053104;28;20831;-65
2022/01/13 12:53:14;;;;;;;32.17;16.87;;;5.40;99.90;;;;;;5054125;28;20206;-64
2022/01/13 12:55:54;;;;;;;29.07;14.00;;;5.50;99.90;;;;;;5049498;28;20626;-64
2022/01/13 12:58:22;;;;;;;27.73;14.77;;;5.70;99.90;;;;;;5052628;28;20222;-64
2022/01/13 13:00:47;;;;;;;28.27;17.60;;;5.80;99.90;;;;;;5050985;28;20285;-65
2022/01/13 13:03:13;;;;;;;26.17;16.67;;;5.80;99.90;;;;;;5054176;28;20277;-63